Time,TemperatureF,DewpointF,PressureIn,WindDirection,WindDirectionDegrees,WindSpeedMPH,WindSpeedGustMPH,Humidity,HourlyPrecipIn,Conditions,Clouds,dailyrainin,SoftwareType,DateUTC
2013-03-03 00:09:00,35.1,30.0,29.68,WNW,302,3.0,7.0,80,0.00,,,0.00,weatherlink.com 1.10,2013-03-03 05:09:00,
2013-03-03 00:24:00,34.9,29.0,29.68,NW,304,3.0,6.0,80,0.00,,,0.00,weatherlink.com 1.10,2013-03-03 05:24:00,
2013-03-03 00:39:00,34.5,28.0,29.68,WNW,287,2.0,7.0,78,0.00,,,0.00,weatherlink.com 1.10,2013-03-03 05:39:00,
2013-03-03 00:54:00,34.3,28.0,29.68,WSW,243,1.0,11.0,78,0.00,,,0.00,weatherlink.com 1.10,2013-03-03 05:54:00,
2013-03-03 01:09:00,34.1,28.0,29.67,NNW,330,3.0,8.0,78,0.00,,,0.00,weatherlink.com 1.10,2013-03-03 06:09:00,
2013-03-03 01:24:00,34.1,28.0,29.67,WNW,300,2.0,7.0,79,0.00,,,0.00,weatherlink.com 1.10,2013-03-03 06:24:00,
2013-03-03 01:39:00,34.0,28.0,29.67,SSW,208,0.0,6.0,79,0.00,,,0.00,weatherlink.com 1.10,2013-03-03 06:39:00,
2013-03-03 01:54:00,33.9,28.0,29.67,SSW,200,2.0,7.0,79,0.00,,,0.00,weatherlink.com 1.10,2013-03-03 06:54:00,
2013-03-03 02:09:00,33.6,28.0,29.67,SSW,205,2.0,8.0,80,0.00,,,0.00,weatherlink.com 1.10,2013-03-03 07:09:00,
2013-03-03 02:24:00,33.5,28.0,29.66,SW,224,0.0,6.0,80,0.00,,,0.00,weatherlink.com 1.10,2013-03-03 07:24:00,
2013-03-03 02:40:00,33.5,28.0,29.66,NW,308,3.0,7.0,80,0.00,,,0.00,weatherlink.com 1.10,2013-03-03 07:40:00,
2013-03-03 02:55:00,33.3,28.0,29.66,SW,225,2.0,9.0,80,0.00,,,0.00,weatherlink.com 1.10,2013-03-03 07:55:00,
2013-03-03 03:10:00,33.2,28.0,29.66,WNW,285,5.0,9.0,80,0.00,,,0.00,weatherlink.com 1.10,2013-03-03 08:10:00,
2013-03-03 03:25:00,33.1,28.0,29.66,North,11,1.0,7.0,80,0.00,,,0.00,weatherlink.com 1.10,2013-03-03 08:25:00,
2013-03-03 03:40:00,33.0,27.0,29.66,East,91,4.0,7.0,80,0.00,,,0.00,weatherlink.com 1.10,2013-03-03 08:40:00,
2013-03-03 03:55:00,32.9,28.0,29.66,SSE,165,2.0,5.0,81,0.00,,,0.00,weatherlink.com 1.10,2013-03-03 08:55:00,
2013-03-03 04:10:00,32.8,28.0,29.66,ENE,63,3.0,5.0,81,0.00,,,0.00,weatherlink.com 1.10,2013-03-03 09:10:00,
2013-03-03 04:25:00,32.7,28.0,29.66,East,100,1.0,8.0,81,0.00,,,0.00,weatherlink.com 1.10,2013-03-03 09:25:00,
2013-03-03 04:40:00,32.6,27.0,29.66,NNW,340,4.0,6.0,81,0.00,,,0.00,weatherlink.com 1.10,2013-03-03 09:40:00,
2013-03-03 04:55:00,32.6,27.0,29.66,NW,322,4.0,6.0,81,0.00,,,0.00,weatherlink.com 1.10,2013-03-03 09:55:00,
2013-03-03 05:10:00,32.6,27.0,29.66,NNW,340,4.0,6.0,81,0.00,,,0.00,weatherlink.com 1.10,2013-03-03 10:10:00,
2013-03-03 05:25:00,32.5,28.0,29.66,NE,47,0.0,7.0,82,0.00,,,0.00,weatherlink.com 1.10,2013-03-03 10:25:00,
2013-03-03 05:40:00,32.4,28.0,29.66,NW,308,1.0,11.0,82,0.00,,,0.00,weatherlink.com 1.10,2013-03-03 10:40:00,
2013-03-03 05:55:00,32.4,28.0,29.66,SSW,213,2.0,7.0,82,0.00,,,0.00,weatherlink.com 1.10,2013-03-03 10:55:00,
2013-03-03 06:10:00,32.1,27.0,29.66,NW,324,4.0,9.0,82,0.00,,,0.00,weatherlink.com 1.10,2013-03-03 11:10:00,
2013-03-03 06:25:00,32.0,27.0,29.66,SSW,204,1.0,10.0,83,0.00,,,0.00,weatherlink.com 1.10,2013-03-03 11:25:00,
2013-03-03 06:40:00,31.9,27.0,29.67,NE,41,0.0,8.0,83,0.00,,,0.00,weatherlink.com 1.10,2013-03-03 11:40:00,
2013-03-03 06:55:00,31.7,27.0,29.67,SW,218,1.0,8.0,84,0.00,,,0.00,weatherlink.com 1.10,2013-03-03 11:55:00,
2013-03-03 07:10:00,31.7,27.0,29.67,ENE,63,3.0,8.0,84,0.00,,,0.00,weatherlink.com 1.10,2013-03-03 12:10:00,
2013-03-03 07:25:00,31.7,28.0,29.67,WNW,286,4.0,9.0,85,0.00,,,0.00,weatherlink.com 1.10,2013-03-03 12:25:00,
2013-03-03 07:40:00,32.1,28.0,29.67,NW,314,2.0,8.0,85,0.00,,,0.00,weatherlink.com 1.10,2013-03-03 12:40:00,
2013-03-03 07:55:00,32.3,28.0,29.67,WNW,288,4.0,8.0,85,0.00,,,0.00,weatherlink.com 1.10,2013-03-03 12:55:00,
2013-03-03 08:10:00,33.7,30.0,29.67,North,11,3.0,7.0,85,0.00,,,0.00,weatherlink.com 1.10,2013-03-03 13:10:00,
2013-03-03 08:25:00,34.4,30.0,29.67,NNE,26,7.0,7.0,83,0.00,,,0.00,weatherlink.com 1.10,2013-03-03 13:25:00,
2013-03-03 08:40:00,34.3,30.0,29.67,West,278,2.0,8.0,83,0.00,,,0.00,weatherlink.com 1.10,2013-03-03 13:40:00,
2013-03-03 08:55:00,35.4,30.0,29.66,NNE,18,2.0,7.0,82,0.00,,,0.00,weatherlink.com 1.10,2013-03-03 13:55:00,
2013-03-03 09:10:00,35.9,31.0,29.66,SW,215,2.0,6.0,81,0.00,,,0.00,weatherlink.com 1.10,2013-03-03 14:10:00,
2013-03-03 09:25:00,35.7,31.0,29.66,WNW,295,2.0,9.0,82,0.00,,,0.00,weatherlink.com 1.10,2013-03-03 14:25:00,
2013-03-03 09:40:00,36.3,31.0,29.66,NNE,29,4.0,7.0,82,0.00,,,0.00,weatherlink.com 1.10,2013-03-03 14:40:00,
2013-03-03 09:55:00,36.9,32.0,29.65,NW,310,3.0,8.0,82,0.00,,,0.00,weatherlink.com 1.10,2013-03-03 14:55:00,
2013-03-03 10:10:00,37.1,32.0,29.65,North,6,3.0,9.0,81,0.00,,,0.00,weatherlink.com 1.10,2013-03-03 15:10:00,
2013-03-03 10:25:00,38.2,33.0,29.65,WNW,291,1.0,5.0,81,0.00,,,0.00,weatherlink.com 1.10,2013-03-03 15:25:00,
2013-03-03 10:40:00,39.4,33.0,29.65,WSW,257,5.0,5.0,79,0.00,,,0.00,weatherlink.com 1.10,2013-03-03 15:40:00,
2013-03-03 10:55:00,40.5,34.0,29.65,NW,324,3.0,7.0,78,0.00,,,0.00,weatherlink.com 1.10,2013-03-03 15:55:00,
2013-03-03 11:10:00,40.1,33.0,29.64,SE,127,2.0,7.0,76,0.00,,,0.00,weatherlink.com 1.10,2013-03-03 16:10:00,
2013-03-03 11:25:00,39.8,33.0,29.64,WNW,287,4.0,6.0,76,0.00,,,0.00,weatherlink.com 1.10,2013-03-03 16:25:00,
2013-03-03 11:40:00,39.2,33.0,29.64,SSW,194,1.0,6.0,78,0.00,,,0.00,weatherlink.com 1.10,2013-03-03 16:40:00,
2013-03-03 11:55:00,39.6,33.0,29.64,East,101,1.0,6.0,77,0.00,,,0.00,weatherlink.com 1.10,2013-03-03 16:55:00,
2013-03-03 12:10:00,39.4,33.0,29.63,NE,49,3.0,7.0,77,0.00,,,0.00,weatherlink.com 1.10,2013-03-03 17:10:00,
2013-03-03 12:26:00,39.5,33.0,29.62,West,267,5.0,7.0,76,0.00,,,0.00,weatherlink.com 1.10,2013-03-03 17:26:00,
2013-03-03 12:41:00,39.3,32.0,29.62,NE,43,0.0,7.0,76,0.00,,,0.00,weatherlink.com 1.10,2013-03-03 17:41:00,
2013-03-03 12:56:00,40.0,33.0,29.61,ENE,60,3.0,7.0,76,0.00,,,0.00,weatherlink.com 1.10,2013-03-03 17:56:00,
2013-03-03 13:11:00,40.7,33.0,29.61,NW,307,2.0,7.0,73,0.00,,,0.00,weatherlink.com 1.10,2013-03-03 18:11:00,
2013-03-03 13:26:00,41.4,33.0,29.61,SSW,212,5.0,7.0,72,0.00,,,0.00,weatherlink.com 1.10,2013-03-03 18:26:00,
2013-03-03 13:41:00,41.4,33.0,29.61,NE,56,2.0,7.0,72,0.00,,,0.00,weatherlink.com 1.10,2013-03-03 18:41:00,
2013-03-03 13:56:00,41.5,33.0,29.61,SSW,193,1.0,4.0,72,0.00,,,0.00,weatherlink.com 1.10,2013-03-03 18:56:00,
2013-03-03 14:11:00,41.5,33.0,29.60,SSW,205,4.0,6.0,73,0.00,,,0.00,weatherlink.com 1.10,2013-03-03 19:11:00,
2013-03-03 14:26:00,40.6,33.0,29.61,West,269,4.0,8.0,75,0.00,,,0.00,weatherlink.com 1.10,2013-03-03 19:26:00,
2013-03-03 14:41:00,40.8,33.0,29.60,SE,142,1.0,9.0,75,0.00,,,0.00,weatherlink.com 1.10,2013-03-03 19:41:00,
2013-03-03 14:56:00,40.9,34.0,29.60,NW,312,1.0,5.0,75,0.00,,,0.00,weatherlink.com 1.10,2013-03-03 19:56:00,
2013-03-03 15:11:00,40.3,33.0,29.60,WNW,284,3.0,8.0,76,0.00,,,0.00,weatherlink.com 1.10,2013-03-03 20:11:00,
2013-03-03 15:26:00,39.7,34.0,29.60,South,191,1.0,8.0,79,0.00,,,0.00,weatherlink.com 1.10,2013-03-03 20:26:00,
2013-03-03 15:41:00,39.8,33.0,29.60,NNE,15,5.0,11.0,78,0.00,,,0.00,weatherlink.com 1.10,2013-03-03 20:41:00,
2013-03-03 15:56:00,39.8,33.0,29.60,NW,316,3.0,7.0,78,0.00,,,0.00,weatherlink.com 1.10,2013-03-03 20:56:00,
2013-03-03 16:11:00,39.7,33.0,29.60,NNE,27,5.0,7.0,78,0.00,,,0.00,weatherlink.com 1.10,2013-03-03 21:11:00,
2013-03-03 16:26:00,39.7,33.0,29.60,West,262,3.0,6.0,78,0.00,,,0.00,weatherlink.com 1.10,2013-03-03 21:26:00,
2013-03-03 16:41:00,39.3,33.0,29.61,East,82,1.0,6.0,79,0.00,,,0.00,weatherlink.com 1.10,2013-03-03 21:41:00,
2013-03-03 16:56:00,38.9,33.0,29.61,East,85,4.0,8.0,80,0.00,,,0.00,weatherlink.com 1.10,2013-03-03 21:56:00,
2013-03-03 17:11:00,38.5,33.0,29.61,NW,305,2.0,6.0,80,0.00,,,0.00,weatherlink.com 1.10,2013-03-03 22:11:00,
2013-03-03 17:26:00,37.9,33.0,29.61,NNW,340,2.0,6.0,82,0.00,,,0.00,weatherlink.com 1.10,2013-03-03 22:26:00,
2013-03-03 17:41:00,37.6,33.0,29.61,SSE,167,0.0,6.0,82,0.00,,,0.00,weatherlink.com 1.10,2013-03-03 22:41:00,
2013-03-03 17:56:00,37.6,33.0,29.61,WSW,247,4.0,7.0,82,0.00,,,0.00,weatherlink.com 1.10,2013-03-03 22:56:00,
2013-03-03 18:11:00,37.5,33.0,29.61,NE,34,4.0,5.0,83,0.00,,,0.00,weatherlink.com 1.10,2013-03-03 23:11:00,
2013-03-03 18:26:00,37.2,33.0,29.62,West,276,2.0,5.0,84,0.00,,,0.00,weatherlink.com 1.10,2013-03-03 23:26:00,
2013-03-03 18:41:00,36.9,33.0,29.62,WSW,245,6.0,7.0,85,0.00,,,0.00,weatherlink.com 1.10,2013-03-03 23:41:00,
2013-03-03 18:56:00,36.8,33.0,29.62,NNE,20,1.0,4.0,86,0.00,,,0.00,weatherlink.com 1.10,2013-03-03 23:56:00,
2013-03-03 19:11:00,36.6,33.0,29.62,NW,325,3.0,7.0,86,0.00,,,0.00,weatherlink.com 1.10,2013-03-04 00:11:00,
2013-03-03 19:26:00,36.0,32.0,29.62,SSE,159,2.0,10.0,85,0.00,,,0.00,weatherlink.com 1.10,2013-03-04 00:26:00,
2013-03-03 19:41:00,35.6,32.0,29.62,NE,44,4.0,9.0,85,0.00,,,0.00,weatherlink.com 1.10,2013-03-04 00:41:00,
2013-03-03 19:56:00,35.6,31.0,29.63,ENE,60,1.0,8.0,83,0.00,,,0.00,weatherlink.com 1.10,2013-03-04 00:56:00,
2013-03-03 20:11:00,35.9,31.0,29.63,West,264,2.0,8.0,82,0.00,,,0.00,weatherlink.com 1.10,2013-03-04 01:11:00,
2013-03-03 20:26:00,35.7,30.0,29.63,WSW,248,2.0,10.0,81,0.00,,,0.00,weatherlink.com 1.10,2013-03-04 01:26:00,
2013-03-03 20:41:00,35.4,30.0,29.63,WSW,250,9.0,13.0,82,0.00,,,0.00,weatherlink.com 1.10,2013-03-04 01:41:00,
2013-03-03 20:56:00,35.3,30.0,29.63,NNW,342,4.0,10.0,82,0.00,,,0.00,weatherlink.com 1.10,2013-03-04 01:56:00,
2013-03-03 21:11:00,35.3,30.0,29.63,East,87,2.0,12.0,82,0.00,,,0.00,weatherlink.com 1.10,2013-03-04 02:11:00,
2013-03-03 21:26:00,35.3,30.0,29.63,South,180,5.0,10.0,81,0.00,,,0.00,weatherlink.com 1.10,2013-03-04 02:26:00,
2013-03-03 21:41:00,35.5,30.0,29.63,WNW,302,2.0,10.0,80,0.00,,,0.00,weatherlink.com 1.10,2013-03-04 02:41:00,
2013-03-03 21:56:00,35.4,30.0,29.62,NE,34,1.0,8.0,80,0.00,,,0.00,weatherlink.com 1.10,2013-03-04 02:56:00,
2013-03-03 22:11:00,35.1,30.0,29.62,NE,40,6.0,10.0,80,0.00,,,0.00,weatherlink.com 1.10,2013-03-04 03:11:00,
2013-03-03 22:26:00,35.0,29.0,29.62,West,270,1.0,8.0,79,0.00,,,0.00,weatherlink.com 1.10,2013-03-04 03:26:00,
2013-03-03 22:41:00,35.0,29.0,29.62,SW,235,2.0,9.0,79,0.00,,,0.00,weatherlink.com 1.10,2013-03-04 03:41:00,
2013-03-03 22:56:00,35.0,28.0,29.62,WNW,298,7.0,10.0,77,0.00,,,0.00,weatherlink.com 1.10,2013-03-04 03:56:00,
2013-03-03 23:11:00,35.0,28.0,29.62,WNW,290,5.0,12.0,77,0.00,,,0.00,weatherlink.com 1.10,2013-03-04 04:11:00,
2013-03-03 23:26:00,34.8,28.0,29.62,WNW,301,2.0,18.0,76,0.00,,,0.00,weatherlink.com 1.10,2013-03-04 04:26:00,
2013-03-03 23:41:00,34.8,28.0,29.61,WSW,249,10.0,14.0,76,0.00,,,0.00,weatherlink.com 1.10,2013-03-04 04:41:00,
2013-03-03 23:56:00,34.5,27.0,29.61,WNW,301,11.0,16.0,75,0.00,,,0.00,weatherlink.com 1.10,2013-03-04 04:56:00,